Time;durP1;ratioP1;P1;durP2;ratioP2;P2;SDS_P1;SDS_P2;PMS_P1;PMS_P2;Temp;Humidity;BMP_temperature;BMP_pressure;BME280_temperature;BME280_humidity;BME280_pressure;Samples;Min_cycle;Max_cycle;Signal;HPM_P1;HPM_P2
2022/12/15 00:40:39;;;;;;;0.88;0.88;;;-0.70;99.90;;;;;;5101416;28;20510;-65
2022/12/15 00:43:10;;;;;;;1.05;0.88;;;-0.70;99.90;;;;;;5097535;28;20063;-64
2022/12/15 00:48:23;;;;;;;1.60;1.00;;;-0.70;99.90;;;;;;5099896;28;20070;-66
2022/12/15 00:50:53;;;;;;;1.33;0.80;;;-0.80;99.90;;;;;;5099486;28;20066;-64
2022/12/15 01:21:04;;;;;;;0.93;0.93;;;-0.90;99.90;;;;;;5098868;28;20050;-63
2022/12/15 01:23:31;;;;;;;1.98;1.17;;;-1.00;99.90;;;;;;5095546;28;20051;-66
2022/12/15 01:25:59;;;;;;;1.67;1.10;;;-0.90;99.90;;;;;;5105246;28;20044;-64
2022/12/15 01:28:27;;;;;;;2.13;1.10;;;-1.00;99.90;;;;;;5099647;28;20043;-65
2022/12/15 01:30:54;;;;;;;1.10;0.85;;;-1.00;99.90;;;;;;5102034;28;20229;-67
2022/12/15 01:33:22;;;;;;;2.67;1.27;;;-1.00;99.90;;;;;;5099560;28;20127;-64
2022/12/15 01:35:59;;;;;;;1.35;1.25;;;-1.00;99.90;;;;;;5102825;28;20054;-64
2022/12/15 01:38:27;;;;;;;0.80;0.77;;;-1.00;99.90;;;;;;5099375;28;20154;-64
2022/12/15 01:41:06;;;;;;;1.23;1.00;;;-1.00;99.90;;;;;;5100226;27;20044;-64
2022/12/15 01:43:35;;;;;;;0.90;0.70;;;-1.00;99.90;;;;;;5096495;28;20120;-64
2022/12/15 01:46:17;;;;;;;1.13;0.80;;;-0.90;99.90;;;;;;5098796;28;20047;-65
2022/12/15 01:48:59;;;;;;;3.92;0.90;;;-0.90;99.90;;;;;;5099884;28;20060;-66
2022/12/15 01:51:34;;;;;;;4.47;1.42;;;-0.90;99.90;;;;;;5098963;27;20051;-64
2022/12/15 01:54:12;;;;;;;1.40;1.30;;;-0.90;99.90;;;;;;5103887;28;20059;-67
2022/12/15 01:56:44;;;;;;;2.15;1.10;;;-0.90;99.90;;;;;;5103530;28;20142;-67
2022/12/15 01:59:18;;;;;;;1.95;1.38;;;-0.80;99.90;;;;;;5100941;28;20051;-65
2022/12/15 02:01:45;;;;;;;1.02;0.95;;;-0.90;99.90;;;;;;5095257;28;20515;-65
2022/12/15 02:04:19;;;;;;;1.17;1.00;;;-0.80;99.90;;;;;;5097373;28;20481;-65
2022/12/15 02:06:46;;;;;;;1.52;1.02;;;-0.80;99.90;;;;;;5095086;28;20062;-64
2022/12/15 02:09:14;;;;;;;2.92;0.95;;;-0.80;99.90;;;;;;5102976;27;20036;-65
2022/12/15 02:12:12;;;;;;;1.13;0.95;;;-0.80;99.90;;;;;;5077485;28;20054;-64
2022/12/15 02:15:00;;;;;;;1.42;0.90;;;-0.80;99.90;;;;;;5100733;28;20079;-65
2022/12/15 02:17:47;;;;;;;1.35;1.08;;;-0.80;99.90;;;;;;5096423;28;20055;-65
2022/12/15 02:20:34;;;;;;;1.05;0.77;;;-0.80;99.90;;;;;;5101523;28;20422;-66
2022/12/15 02:23:19;;;;;;;1.75;0.80;;;-0.80;99.90;;;;;;5085528;28;20056;-64
2022/12/15 02:25:58;;;;;;;1.88;1.23;;;-0.70;99.90;;;;;;5098543;28;20079;-66
2022/12/15 02:28:47;;;;;;;0.70;0.63;;;-0.70;99.90;;;;;;5100707;28;20043;-66
2022/12/15 02:34:17;;;;;;;1.25;1.08;;;-0.70;99.90;;;;;;5094334;28;20059;-64
2022/12/15 02:36:48;;;;;;;0.98;0.80;;;-0.70;99.90;;;;;;5100138;28;20454;-64
2022/12/15 02:39:17;;;;;;;2.15;0.90;;;-0.70;99.90;;;;;;5100305;28;20460;-64
2022/12/15 02:41:46;;;;;;;1.38;0.90;;;-0.60;99.90;;;;;;5100141;28;20044;-65
2022/12/15 02:44:37;;;;;;;0.75;0.63;;;-0.60;99.90;;;;;;5105560;28;20047;-65
2022/12/15 02:47:32;;;;;;;1.40;0.93;;;-0.70;99.90;;;;;;5103816;28;20051;-65
2022/12/15 02:50:05;;;;;;;3.38;1.00;;;-0.70;99.90;;;;;;5103111;28;20093;-65
2022/12/15 02:52:55;;;;;;;1.00;0.90;;;-0.80;99.90;;;;;;5104596;28;20055;-65
2022/12/15 02:55:41;;;;;;;2.00;1.17;;;-0.80;99.90;;;;;;5098205;28;20143;-65
2022/12/15 02:58:13;;;;;;;1.25;1.10;;;-0.90;99.90;;;;;;5102457;28;20054;-64
2022/12/15 03:00:51;;;;;;;1.67;1.13;;;-0.90;99.90;;;;;;5088296;28;20050;-66
2022/12/15 03:03:20;;;;;;;1.58;1.25;;;-0.90;99.90;;;;;;5102508;28;20043;-65
2022/12/15 03:05:54;;;;;;;2.80;1.63;;;-1.00;99.90;;;;;;5102989;28;20125;-65
2022/12/15 03:08:21;;;;;;;1.17;1.08;;;-1.00;99.90;;;;;;5103756;28;20048;-65
2022/12/15 03:10:53;;;;;;;3.53;1.42;;;-1.00;99.90;;;;;;5104432;28;20052;-65
2022/12/15 03:13:22;;;;;;;2.05;1.25;;;-1.00;99.90;;;;;;5102087;28;20040;-64
2022/12/15 03:15:48;;;;;;;0.73;0.70;;;-1.10;99.90;;;;;;5102137;28;20111;-66
2022/12/15 03:18:16;;;;;;;2.13;1.33;;;-1.10;99.90;;;;;;5102843;28;20076;-64
2022/12/15 03:20:42;;;;;;;1.58;0.82;;;-1.00;99.90;;;;;;5105749;28;20058;-64
2022/12/15 03:23:09;;;;;;;1.08;0.80;;;-1.10;99.90;;;;;;5099092;28;20123;-65
2022/12/15 03:25:36;;;;;;;1.25;1.08;;;-1.10;99.90;;;;;;5103205;28;20039;-65
2022/12/15 03:28:03;;;;;;;2.72;1.20;;;-1.10;99.90;;;;;;5104269;28;20069;-64
2022/12/15 03:30:30;;;;;;;1.10;1.00;;;-1.00;99.90;;;;;;5105869;28;20040;-66
2022/12/15 03:32:57;;;;;;;1.85;1.08;;;-1.10;99.90;;;;;;5104163;28;20051;-65
2022/12/15 03:35:24;;;;;;;0.73;0.70;;;-1.00;99.90;;;;;;5102431;28;20143;-67
2022/12/15 03:37:51;;;;;;;1.20;1.10;;;-1.10;99.90;;;;;;5098951;28;20501;-64
2022/12/15 03:40:17;;;;;;;0.95;0.93;;;-1.10;99.90;;;;;;5104617;28;20052;-64
2022/12/15 03:42:47;;;;;;;0.95;0.90;;;-1.10;99.90;;;;;;5101865;28;20052;-65
2022/12/15 03:45:17;;;;;;;2.60;1.05;;;-1.10;99.90;;;;;;5104376;28;20039;-65
2022/12/15 03:47:45;;;;;;;1.73;1.00;;;-1.00;99.90;;;;;;5082355;28;20476;-64
2022/12/15 03:50:14;;;;;;;1.17;0.88;;;-1.00;99.90;;;;;;5102443;28;20043;-64
2022/12/15 03:52:41;;;;;;;1.05;0.80;;;-1.00;99.90;;;;;;5102705;28;20225;-64
2022/12/15 03:55:09;;;;;;;0.98;0.90;;;-1.00;99.90;;;;;;5104112;28;20278;-65
2022/12/15 03:57:36;;;;;;;1.30;1.10;;;-1.00;99.90;;;;;;5106431;28;20054;-64
2022/12/15 04:00:05;;;;;;;2.85;0.98;;;-1.00;99.90;;;;;;5101623;28;20043;-65
2022/12/15 04:02:38;;;;;;;1.33;0.75;;;-1.00;99.90;;;;;;5101564;28;20521;-64
2022/12/15 04:05:05;;;;;;;2.83;1.15;;;-1.10;99.90;;;;;;5102418;28;20551;-65
2022/12/15 04:07:32;;;;;;;1.65;1.55;;;-1.00;99.90;;;;;;5103900;28;20044;-65
2022/12/15 04:09:59;;;;;;;1.23;1.10;;;-1.10;99.90;;;;;;5095970;28;20418;-66
2022/12/15 04:12:26;;;;;;;1.25;1.15;;;-1.10;99.90;;;;;;5099627;28;20477;-64
2022/12/15 04:14:53;;;;;;;3.63;1.25;;;-1.00;99.90;;;;;;5099983;28;20127;-66
2022/12/15 04:17:19;;;;;;;2.25;1.13;;;-1.00;99.90;;;;;;5088673;28;20050;-64
2022/12/15 04:22:32;;;;;;;0.75;0.75;;;-1.00;99.90;;;;;;5102565;28;20454;-64
2022/12/15 05:34:02;;;;;;;1.55;1.40;;;-1.10;99.90;;;;;;5090626;28;20420;-64
2022/12/15 05:36:32;;;;;;;2.45;2.25;;;-1.00;99.90;;;;;;5102146;28;20050;-64
2022/12/15 05:38:58;;;;;;;2.10;1.90;;;-1.10;99.90;;;;;;5097861;28;20081;-64
2022/12/15 05:41:25;;;;;;;2.50;2.10;;;-1.10;99.90;;;;;;5099773;28;20353;-66
2022/12/15 05:43:52;;;;;;;5.15;3.28;;;-1.00;99.90;;;;;;5102891;28;20126;-64
2022/12/15 05:46:19;;;;;;;6.18;3.25;;;-1.00;99.90;;;;;;5102469;28;20058;-64
2022/12/15 05:48:46;;;;;;;6.07;4.38;;;-1.00;99.90;;;;;;5093543;28;20054;-65
2022/12/15 05:51:13;;;;;;;7.18;5.88;;;-1.10;99.90;;;;;;5102033;28;20050;-64
2022/12/15 05:53:41;;;;;;;6.78;5.40;;;-1.00;99.90;;;;;;5099439;28;20054;-67
2022/12/15 05:56:10;;;;;;;6.85;4.40;;;-1.00;99.90;;;;;;5098313;28;20055;-67
2022/12/15 05:58:38;;;;;;;4.83;3.67;;;-1.00;99.90;;;;;;5095342;28;20052;-64
2022/12/15 06:01:16;;;;;;;3.20;2.80;;;-1.00;99.90;;;;;;5097731;28;20280;-65
2022/12/15 06:03:43;;;;;;;3.15;2.65;;;-1.00;99.90;;;;;;5082695;28;20054;-67
2022/12/15 06:06:12;;;;;;;3.40;2.58;;;-1.00;99.90;;;;;;5096774;28;20047;-65
2022/12/15 06:08:41;;;;;;;4.90;2.45;;;-1.00;99.90;;;;;;5097932;28;20178;-66
2022/12/15 06:11:11;;;;;;;3.08;2.88;;;-1.00;99.90;;;;;;5072899;28;20047;-65
2022/12/15 06:13:38;;;;;;;;;;;-1.00;99.90;;;;;;5090135;28;20379;-65
2022/12/15 06:16:11;;;;;;;4.30;3.05;;;-1.00;99.90;;;;;;5091851;28;19932;-65
2022/12/15 06:18:41;;;;;;;3.25;2.95;;;-1.00;99.90;;;;;;5096103;28;20074;-65
2022/12/15 06:21:11;;;;;;;6.20;3.28;;;-0.90;99.90;;;;;;5095708;28;20058;-67
2022/12/15 06:23:39;;;;;;;6.23;2.60;;;-1.00;99.90;;;;;;5093006;28;20043;-66
2022/12/15 06:26:16;;;;;;;6.68;4.00;;;-1.00;99.90;;;;;;5095020;28;20296;-66
2022/12/15 06:28:44;;;;;;;4.28;3.72;;;-1.00;99.90;;;;;;5091087;28;20895;-65
2022/12/15 06:31:12;;;;;;;7.05;3.90;;;-1.00;99.90;;;;;;5095732;28;20059;-66
2022/12/15 06:33:40;;;;;;;4.60;3.55;;;-1.00;99.90;;;;;;5080636;28;20048;-66
2022/12/15 06:36:10;;;;;;;4.30;3.90;;;-1.10;99.90;;;;;;5096548;28;20324;-66
2022/12/15 06:38:38;;;;;;;6.82;5.90;;;-1.10;99.90;;;;;;5098209;28;20046;-65
2022/12/15 06:41:06;;;;;;;5.20;4.70;;;-1.10;99.90;;;;;;5096444;28;20043;-64
2022/12/15 06:43:33;;;;;;;6.80;4.75;;;-1.10;99.90;;;;;;5096432;28;20055;-64
2022/12/15 06:46:01;;;;;;;6.07;5.13;;;-1.10;99.90;;;;;;5099298;28;20035;-65
2022/12/15 06:48:29;;;;;;;8.77;7.78;;;-1.20;99.90;;;;;;5094722;28;20086;-64
2022/12/15 06:51:00;;;;;;;5.78;4.68;;;-1.20;99.90;;;;;;5097777;28;21497;-65
2022/12/15 06:53:27;;;;;;;6.72;5.43;;;-1.30;99.90;;;;;;5087135;28;20087;-66
2022/12/15 06:56:02;;;;;;;5.93;5.25;;;-1.30;99.90;;;;;;5093756;28;20056;-65
2022/12/15 06:58:29;;;;;;;6.80;6.15;;;-1.40;99.90;;;;;;5094947;28;20130;-65
2022/12/15 07:00:56;;;;;;;6.90;5.47;;;-1.40;99.90;;;;;;5099622;28;20066;-66
2022/12/15 07:03:24;;;;;;;6.88;5.25;;;-1.40;99.90;;;;;;5093756;28;20151;-65
2022/12/15 07:06:04;;;;;;;6.15;5.13;;;-1.40;99.90;;;;;;5092148;28;20120;-65
2022/12/15 07:08:31;;;;;;;4.28;3.88;;;-1.40;99.90;;;;;;5091704;28;20448;-64
2022/12/15 07:11:10;;;;;;;8.75;5.47;;;-1.40;99.90;;;;;;5093474;28;20079;-64
2022/12/15 07:13:37;;;;;;;6.32;5.13;;;-1.40;99.90;;;;;;5094833;28;20063;-67
2022/12/15 07:16:06;;;;;;;6.95;4.88;;;-1.40;99.90;;;;;;5098170;28;20276;-64
2022/12/15 07:18:33;;;;;;;7.03;5.72;;;-1.40;99.90;;;;;;5098103;28;20130;-65
2022/12/15 07:21:06;;;;;;;7.25;6.55;;;-1.30;99.90;;;;;;5094120;28;20048;-67
2022/12/15 07:23:33;;;;;;;9.02;7.13;;;-1.30;99.90;;;;;;5098688;28;20051;-67
2022/12/15 07:26:19;;;;;;;7.85;6.57;;;-1.40;99.90;;;;;;5102946;28;20050;-65
2022/12/15 07:28:46;;;;;;;7.15;6.45;;;-1.30;99.90;;;;;;5103040;28;20081;-64
2022/12/15 07:31:14;;;;;;;9.93;8.73;;;-1.40;99.90;;;;;;5099333;28;20365;-66
2022/12/15 07:33:41;;;;;;;8.02;6.53;;;-1.30;99.90;;;;;;5099171;28;20142;-65
2022/12/15 07:36:09;;;;;;;7.63;6.75;;;-1.40;99.90;;;;;;5101063;28;20495;-66
2022/12/15 07:38:37;;;;;;;7.18;6.47;;;-1.40;99.90;;;;;;5098667;28;21722;-66
2022/12/15 07:41:06;;;;;;;8.00;5.45;;;-1.50;99.90;;;;;;5097769;28;20138;-65
2022/12/15 07:43:33;;;;;;;6.22;5.63;;;-1.50;99.90;;;;;;5095577;28;20043;-64
2022/12/15 07:46:02;;;;;;;6.18;5.57;;;-1.50;99.90;;;;;;5105126;28;20134;-64
2022/12/15 07:48:29;;;;;;;6.75;6.03;;;-1.50;99.90;;;;;;5102268;28;20182;-65
2022/12/15 07:50:56;;;;;;;8.70;6.65;;;-1.50;99.90;;;;;;5106526;28;20086;-64
2022/12/15 07:53:33;;;;;;;7.63;6.82;;;-1.50;99.90;;;;;;5097026;28;20079;-65
2022/12/15 07:56:03;;;;;;;6.60;5.47;;;-1.60;99.90;;;;;;5099270;28;20071;-64
2022/12/15 07:58:36;;;;;;;7.38;5.90;;;-1.60;99.90;;;;;;5099290;28;20040;-64
2022/12/15 08:01:06;;;;;;;6.55;4.97;;;-1.60;99.90;;;;;;5103945;28;20063;-63
2022/12/15 08:03:33;;;;;;;5.55;4.63;;;-1.60;99.90;;;;;;5099741;28;20054;-65
2022/12/15 08:06:07;;;;;;;6.72;4.00;;;-1.60;99.90;;;;;;5101992;28;20726;-66
2022/12/15 08:08:34;;;;;;;4.35;3.95;;;-1.60;99.90;;;;;;5102453;28;20056;-64
2022/12/15 08:11:06;;;;;;;6.05;4.40;;;-1.60;99.90;;;;;;5104292;28;20655;-64
2022/12/15 08:13:34;;;;;;;7.00;5.15;;;-1.60;99.90;;;;;;5097860;28;20047;-66
2022/12/15 08:16:21;;;;;;;11.57;5.75;;;-1.60;99.90;;;;;;5099977;28;20043;-65
2022/12/15 08:18:48;;;;;;;7.07;4.78;;;-1.60;99.90;;;;;;5095238;28;21984;-66
2022/12/15 08:21:15;;;;;;;6.20;4.78;;;-1.50;99.90;;;;;;5100496;28;20096;-64
2022/12/15 08:23:41;;;;;;;5.25;4.45;;;-1.60;99.90;;;;;;5096822;28;20069;-64
2022/12/15 08:26:14;;;;;;;9.48;4.85;;;-1.60;99.90;;;;;;5099264;28;20079;-66
2022/12/15 08:28:42;;;;;;;6.45;4.50;;;-1.60;99.90;;;;;;5100777;28;20122;-64
2022/12/15 08:31:15;;;;;;;7.07;4.57;;;-1.60;99.90;;;;;;5102928;28;20096;-66
2022/12/15 08:33:44;;;;;;;5.95;4.75;;;-1.60;99.90;;;;;;5099709;28;20397;-65
2022/12/15 08:36:12;;;;;;;5.78;4.68;;;-1.60;99.90;;;;;;5098156;28;20040;-64
2022/12/15 08:38:41;;;;;;;4.25;3.85;;;-1.60;99.90;;;;;;5100707;28;20056;-64
2022/12/15 08:41:07;;;;;;;6.28;4.20;;;-1.60;99.90;;;;;;5100896;27;20048;-64
2022/12/15 08:43:35;;;;;;;4.65;4.05;;;-1.60;99.90;;;;;;5098920;28;20048;-65
2022/12/15 08:46:03;;;;;;;5.00;4.50;;;-1.60;99.90;;;;;;5101369;28;20066;-65
2022/12/15 08:48:30;;;;;;;4.88;3.47;;;-1.60;99.90;;;;;;5100266;28;20131;-64
2022/12/15 08:50:58;;;;;;;5.20;4.70;;;-1.60;99.90;;;;;;5102441;28;20048;-65
2022/12/15 08:53:25;;;;;;;4.63;3.72;;;-1.60;99.90;;;;;;5078650;28;20390;-67
2022/12/15 08:56:03;;;;;;;4.85;4.25;;;-1.60;99.90;;;;;;5102354;28;20068;-64
2022/12/15 08:58:30;;;;;;;5.18;4.57;;;-1.70;99.90;;;;;;5100171;28;20527;-65
2022/12/15 09:01:02;;;;;;;5.07;4.00;;;-1.70;99.90;;;;;;5100459;28;20040;-65
2022/12/15 09:03:29;;;;;;;5.53;3.97;;;-1.70;99.90;;;;;;5102548;28;20044;-66
2022/12/15 09:06:04;;;;;;;4.35;3.95;;;-1.70;99.90;;;;;;5102602;28;20043;-65
2022/12/15 09:08:32;;;;;;;4.63;4.22;;;-1.70;99.90;;;;;;5104357;28;20044;-64
2022/12/15 09:11:00;;;;;;;5.40;4.22;;;-1.80;99.90;;;;;;5101113;28;20044;-64
2022/12/15 09:13:27;;;;;;;5.78;4.50;;;-1.80;99.90;;;;;;5097033;28;20138;-67
2022/12/15 09:15:59;;;;;;;4.43;4.03;;;-1.80;99.90;;;;;;5102209;27;20063;-65
2022/12/15 09:18:36;;;;;;;4.45;4.05;;;-1.70;99.90;;;;;;5101559;28;20490;-66
2022/12/15 09:21:05;;;;;;;5.10;4.30;;;-1.70;99.90;;;;;;5101437;28;20108;-65
2022/12/15 09:23:32;;;;;;;5.60;4.63;;;-1.60;99.90;;;;;;5101127;28;20055;-65
2022/12/15 09:26:06;;;;;;;4.85;4.10;;;-1.60;99.90;;;;;;5099797;28;20048;-67
2022/12/15 09:28:34;;;;;;;5.38;4.40;;;-1.50;99.90;;;;;;5102165;28;20066;-65
2022/12/15 09:31:05;;;;;;;6.00;4.93;;;-1.50;99.90;;;;;;5098394;28;20044;-65
2022/12/15 09:33:33;;;;;;;6.18;4.78;;;-1.40;99.90;;;;;;5099671;28;20036;-66
2022/12/15 09:36:01;;;;;;;6.57;5.05;;;-1.40;99.90;;;;;;5099348;28;20064;-65
2022/12/15 09:38:28;;;;;;;5.28;4.68;;;-1.30;99.90;;;;;;5101188;28;20486;-66
2022/12/15 09:40:55;;;;;;;6.03;5.25;;;-1.20;99.90;;;;;;5101294;28;20044;-65
2022/12/15 09:43:26;;;;;;;7.32;5.07;;;-1.20;99.90;;;;;;5101091;28;20147;-65
2022/12/15 09:46:25;;;;;;;8.05;5.60;;;-1.10;99.90;;;;;;5098616;28;20414;-66
2022/12/15 09:48:54;;;;;;;5.75;5.10;;;-1.20;99.90;;;;;;5097322;28;20442;-65
2022/12/15 09:51:32;;;;;;;5.37;4.87;;;-1.20;99.90;;;;;;5099093;28;20039;-66
2022/12/15 09:53:59;;;;;;;7.57;4.82;;;-1.20;99.90;;;;;;5100736;28;20047;-66
2022/12/15 09:56:48;;;;;;;6.70;6.07;;;-1.20;99.90;;;;;;5101276;28;20047;-66
2022/12/15 09:59:24;;;;;;;6.88;4.47;;;-1.10;99.90;;;;;;5096604;27;20498;-65
2022/12/15 10:02:10;;;;;;;7.07;5.05;;;-1.10;99.90;;;;;;5100467;28;20124;-65
2022/12/15 10:05:12;;;;;;;5.25;4.40;;;-1.10;99.90;;;;;;5102002;28;20895;-65
2022/12/15 10:07:45;;;;;;;6.20;4.70;;;-1.10;99.90;;;;;;5095184;28;20087;-65
2022/12/15 10:10:41;;;;;;;12.68;5.43;;;-1.10;99.90;;;;;;5099832;28;20097;-65
2022/12/15 10:13:16;;;;;;;7.30;5.55;;;-1.10;99.90;;;;;;5093092;28;20149;-65
2022/12/15 10:16:05;;;;;;;5.55;4.38;;;-1.10;99.90;;;;;;5101174;28;20048;-64
2022/12/15 10:19:07;;;;;;;7.22;6.03;;;-1.00;99.90;;;;;;5082710;28;20578;-66
2022/12/15 10:21:35;;;;;;;7.50;5.57;;;-1.00;99.90;;;;;;5086616;28;20060;-65
2022/12/15 10:24:32;;;;;;;9.05;6.38;;;-1.00;99.90;;;;;;5100938;28;20050;-65
2022/12/15 10:27:34;;;;;;;6.90;6.00;;;-0.90;99.90;;;;;;5093545;28;20063;-65
2022/12/15 10:30:07;;;;;;;9.30;7.60;;;-0.90;99.90;;;;;;5102053;28;20039;-65
2022/12/15 10:33:00;;;;;;;11.82;8.45;;;-0.90;99.90;;;;;;5100684;28;20879;-65
2022/12/15 10:35:35;;;;;;;13.32;8.85;;;-0.80;99.90;;;;;;5098625;28;20138;-66
2022/12/15 10:38:14;;;;;;;12.02;8.30;;;-0.80;99.90;;;;;;5100720;28;20036;-64
2022/12/15 10:40:43;;;;;;;12.40;9.07;;;-0.80;99.90;;;;;;5100942;28;20105;-66
2022/12/15 10:43:24;;;;;;;9.52;8.05;;;-0.80;99.90;;;;;;5099774;28;20046;-65
2022/12/15 10:46:02;;;;;;;10.93;7.63;;;-0.80;99.90;;;;;;5099340;28;20055;-66
2022/12/15 10:48:30;;;;;;;8.35;6.07;;;-0.80;99.90;;;;;;5102350;28;20139;-65
2022/12/15 10:51:42;;;;;;;9.27;6.47;;;-0.80;99.90;;;;;;5101586;28;20105;-64
2022/12/15 10:54:13;;;;;;;9.15;6.32;;;-0.70;99.90;;;;;;5091519;28;20051;-65
2022/12/15 10:56:56;;;;;;;9.13;5.45;;;-0.70;99.90;;;;;;5101392;28;20047;-65
2022/12/15 10:59:34;;;;;;;10.02;7.35;;;-0.70;99.90;;;;;;5103587;28;20109;-65
2022/12/15 11:02:19;;;;;;;7.68;5.78;;;-0.70;99.90;;;;;;5102694;28;20093;-65
2022/12/15 11:05:01;;;;;;;10.38;6.90;;;-0.70;99.90;;;;;;5099892;28;20076;-65
2022/12/15 11:07:40;;;;;;;8.00;6.25;;;-0.70;99.90;;;;;;5102665;28;20039;-65
2022/12/15 11:10:19;;;;;;;8.95;6.32;;;-0.60;99.90;;;;;;5101326;28;20120;-64
2022/12/15 11:13:11;;;;;;;6.07;4.82;;;-0.60;99.90;;;;;;5104412;28;20039;-65
2022/12/15 11:15:46;;;;;;;5.68;4.80;;;-0.60;99.90;;;;;;5103445;28;20150;-64
2022/12/15 11:18:26;;;;;;;7.40;6.28;;;-0.60;99.90;;;;;;5102209;28;20473;-65
2022/12/15 11:21:06;;;;;;;4.90;4.50;;;-0.50;99.90;;;;;;5100733;28;20403;-64
2022/12/15 11:23:44;;;;;;;4.45;4.05;;;-0.60;99.90;;;;;;5100663;28;20039;-64
2022/12/15 11:26:24;;;;;;;4.88;4.30;;;-0.50;99.90;;;;;;5098875;28;20120;-64
2022/12/15 11:28:59;;;;;;;4.93;4.13;;;-0.50;99.90;;;;;;5101982;28;20050;-65
2022/12/15 11:31:35;;;;;;;6.90;4.20;;;-0.50;99.90;;;;;;5100718;28;20798;-64
2022/12/15 11:34:10;;;;;;;4.13;3.72;;;-0.50;99.90;;;;;;5102150;28;20394;-64
2022/12/15 11:36:55;;;;;;;4.60;4.15;;;-0.40;99.90;;;;;;5100003;28;20234;-64
2022/12/15 11:39:22;;;;;;;5.10;4.60;;;-0.40;99.90;;;;;;5100239;28;20080;-66
2022/12/15 11:41:55;;;;;;;5.55;4.63;;;-0.40;99.90;;;;;;5099515;28;20048;-64
2022/12/15 11:44:22;;;;;;;6.45;3.97;;;-0.30;99.90;;;;;;5103616;28;20077;-65
2022/12/15 11:47:24;;;;;;;5.30;4.60;;;-0.30;99.90;;;;;;5097762;28;20048;-65
2022/12/15 11:50:15;;;;;;;4.85;4.30;;;-0.30;99.90;;;;;;5039325;28;20040;-65
2022/12/15 11:53:03;;;;;;;5.13;4.45;;;-0.20;99.90;;;;;;5098927;28;20131;-67
2022/12/15 11:55:50;;;;;;;5.85;4.72;;;-0.20;99.90;;;;;;5088981;28;20047;-65
2022/12/15 11:58:35;;;;;;;6.00;3.67;;;-0.30;99.90;;;;;;5082281;28;20055;-65
2022/12/15 12:01:26;;;;;;;4.20;3.80;;;-0.30;99.90;;;;;;5096735;28;20130;-65
2022/12/15 12:04:15;;;;;;;4.05;3.63;;;-0.30;99.90;;;;;;5098479;28;20048;-64
2022/12/15 12:07:02;;;;;;;5.72;3.10;;;-0.40;99.90;;;;;;5089556;28;20048;-64
2022/12/15 12:09:43;;;;;;;4.13;3.72;;;-0.40;99.90;;;;;;5099307;27;20054;-65
2022/12/15 12:12:24;;;;;;;3.75;3.38;;;-0.50;99.90;;;;;;5095779;28;20040;-64
2022/12/15 12:15:10;;;;;;;5.70;4.90;;;-0.50;99.90;;;;;;5098938;28;20051;-65
2022/12/15 12:17:46;;;;;;;4.03;3.63;;;-0.60;99.90;;;;;;5098273;28;20056;-65
2022/12/15 12:20:21;;;;;;;3.83;3.38;;;-0.60;99.90;;;;;;5094273;28;20112;-65
2022/12/15 12:23:01;;;;;;;4.72;3.35;;;-0.60;99.90;;;;;;5098385;28;20430;-65
2022/12/15 12:25:33;;;;;;;3.65;3.20;;;-0.60;99.90;;;;;;5099035;28;20493;-66
2022/12/15 12:28:17;;;;;;;5.97;3.53;;;-0.60;99.90;;;;;;5103000;28;20096;-64
2022/12/15 12:30:46;;;;;;;5.65;3.85;;;-0.70;99.90;;;;;;5101483;28;20052;-64
2022/12/15 12:33:35;;;;;;;6.65;3.65;;;-0.70;99.90;;;;;;5099443;28;20048;-65
2022/12/15 12:36:10;;;;;;;5.07;4.15;;;-0.70;99.90;;;;;;5101805;28;20080;-65
2022/12/15 12:38:51;;;;;;;4.35;3.95;;;-0.70;99.90;;;;;;5096747;28;20514;-65
2022/12/15 12:41:48;;;;;;;5.20;4.13;;;-0.70;99.90;;;;;;5097571;28;20148;-64
2022/12/15 12:44:36;;;;;;;6.70;3.75;;;-0.80;99.90;;;;;;5098529;28;20055;-64
2022/12/15 12:47:30;;;;;;;4.50;3.47;;;-0.80;99.90;;;;;;5101623;28;20500;-65
2022/12/15 12:50:12;;;;;;;4.20;3.40;;;-0.90;99.90;;;;;;5098157;28;20138;-66
2022/12/15 12:53:04;;;;;;;4.05;3.30;;;-0.90;99.90;;;;;;5103049;28;20040;-65
2022/12/15 12:55:40;;;;;;;5.15;3.88;;;-0.90;99.90;;;;;;5099911;28;20745;-66
2022/12/15 12:58:38;;;;;;;5.55;4.28;;;-1.00;99.90;;;;;;5098987;28;20048;-65
2022/12/15 13:01:31;;;;;;;5.20;4.47;;;-1.10;99.90;;;;;;5099442;28;20466;-64
2022/12/15 13:04:06;;;;;;;4.47;3.90;;;-1.20;99.90;;;;;;5098079;28;20075;-65
2022/12/15 13:06:33;;;;;;;4.82;4.20;;;-1.20;99.90;;;;;;5099257;28;20048;-64
2022/12/15 13:09:15;;;;;;;5.63;3.90;;;-1.30;99.90;;;;;;5098904;28;20076;-64
2022/12/15 13:11:49;;;;;;;5.50;4.95;;;-1.40;99.90;;;;;;5093199;28;20059;-65
2022/12/15 13:14:41;;;;;;;5.13;4.63;;;-1.40;99.90;;;;;;5099194;28;20091;-64
2022/12/15 13:17:18;;;;;;;5.57;4.28;;;-1.40;99.90;;;;;;5103497;28;20490;-64
2022/12/15 13:20:00;;;;;;;5.93;5.32;;;-1.50;99.90;;;;;;5095778;28;20047;-65
2022/12/15 13:22:32;;;;;;;5.63;4.15;;;-1.50;99.90;;;;;;5100403;28;20510;-64
2022/12/15 13:25:00;;;;;;;5.72;4.90;;;-1.60;99.90;;;;;;5101205;28;20083;-65
2022/12/15 13:27:39;;;;;;;6.45;4.97;;;-1.60;99.90;;;;;;5097862;28;20081;-66
2022/12/15 13:30:06;;;;;;;5.32;4.72;;;-1.60;99.90;;;;;;5098645;28;20043;-65
2022/12/15 13:32:42;;;;;;;7.25;4.78;;;-1.60;99.90;;;;;;5095088;28;20154;-64
2022/12/15 13:35:12;;;;;;;6.57;5.28;;;-1.60;99.90;;;;;;5100048;28;20122;-67
2022/12/15 13:38:02;;;;;;;6.35;5.00;;;-1.60;99.90;;;;;;5093810;28;20430;-64
2022/12/15 13:40:32;;;;;;;5.43;4.72;;;-1.60;99.90;;;;;;5095219;28;20101;-65
2022/12/15 13:43:02;;;;;;;8.77;5.68;;;-1.70;99.90;;;;;;5092477;28;20410;-64
2022/12/15 13:45:38;;;;;;;7.07;5.05;;;-1.60;99.90;;;;;;5090985;28;20134;-65
2022/12/15 13:48:14;;;;;;;6.47;5.57;;;-1.70;99.90;;;;;;5093156;28;20059;-65
2022/12/15 13:51:01;;;;;;;7.60;5.72;;;-1.70;99.90;;;;;;5095001;27;20082;-65
2022/12/15 13:53:37;;;;;;;5.90;5.30;;;-1.70;99.90;;;;;;5090185;28;20135;-64
2022/12/15 13:56:10;;;;;;;6.47;5.88;;;-1.80;99.90;;;;;;5102204;28;20044;-64
2022/12/15 13:58:44;;;;;;;7.30;6.35;;;-1.80;99.90;;;;;;5095800;28;20051;-65
2022/12/15 14:01:25;;;;;;;8.85;7.15;;;-1.80;99.90;;;;;;5092898;28;20481;-64
2022/12/15 14:04:05;;;;;;;7.72;6.38;;;-1.90;99.90;;;;;;5099647;28;20047;-67
2022/12/15 14:07:04;;;;;;;10.75;8.02;;;-1.90;99.90;;;;;;5074130;28;20174;-64
2022/12/15 14:09:40;;;;;;;9.32;8.32;;;-2.00;99.90;;;;;;5085372;28;20062;-65
2022/12/15 14:12:12;;;;;;;11.63;8.38;;;-2.00;99.90;;;;;;5098305;28;20051;-67
2022/12/15 14:14:45;;;;;;;12.55;9.75;;;-2.00;99.90;;;;;;5096291;28;20143;-66
2022/12/15 14:17:17;;;;;;;11.57;9.27;;;-2.10;99.90;;;;;;5093847;28;20051;-66
2022/12/15 14:19:46;;;;;;;8.00;7.20;;;-2.10;99.90;;;;;;5097406;28;20040;-64
2022/12/15 14:22:28;;;;;;;11.68;8.60;;;-2.20;99.90;;;;;;5098608;28;20131;-64
2022/12/15 14:25:02;;;;;;;10.45;7.95;;;-2.30;99.90;;;;;;5096598;28;20051;-64
2022/12/15 14:27:31;;;;;;;9.88;8.82;;;-2.30;99.90;;;;;;5090977;28;20079;-66
2022/12/15 14:30:17;;;;;;;12.05;7.93;;;-2.30;99.90;;;;;;5098501;28;20180;-67
2022/12/15 14:32:52;;;;;;;8.40;7.47;;;-2.40;99.90;;;;;;5096280;28;20047;-64
2022/12/15 14:35:28;;;;;;;11.30;8.20;;;-2.40;99.90;;;;;;5094622;28;20039;-66
2022/12/15 14:37:58;;;;;;;12.60;8.75;;;-2.40;99.90;;;;;;5096349;28;20052;-64
2022/12/15 14:40:27;;;;;;;9.23;6.85;;;-2.50;99.90;;;;;;5095095;28;20298;-66
2022/12/15 14:43:24;;;;;;;10.60;8.32;;;-2.50;99.90;;;;;;5098950;28;20048;-64
2022/12/15 14:46:03;;;;;;;12.25;8.52;;;-2.60;99.90;;;;;;5097060;28;20109;-63
2022/12/15 14:48:35;;;;;;;11.50;7.57;;;-2.60;99.90;;;;;;5095217;28;20499;-65
2022/12/15 14:51:11;;;;;;;10.80;7.93;;;-2.70;99.90;;;;;;5099751;28;20051;-64
2022/12/15 14:53:40;;;;;;;11.18;7.97;;;-2.80;99.90;;;;;;5094845;28;20054;-64
2022/12/15 14:56:19;;;;;;;10.00;7.38;;;-2.80;99.90;;;;;;5102085;28;20055;-65
2022/12/15 14:59:15;;;;;;;8.98;7.00;;;-2.90;99.90;;;;;;5096394;28;20048;-69
2022/12/15 15:02:11;;;;;;;7.85;6.65;;;-2.90;99.90;;;;;;5093822;28;20054;-64
2022/12/15 15:04:40;;;;;;;8.48;7.28;;;-2.90;99.90;;;;;;5103401;28;20051;-66
2022/12/15 15:07:17;;;;;;;8.93;7.05;;;-3.00;99.90;;;;;;5093447;28;20047;-65
2022/12/15 15:09:45;;;;;;;8.07;6.28;;;-3.00;99.90;;;;;;5094499;28;20051;-65
2022/12/15 15:12:21;;;;;;;11.57;8.30;;;-3.00;99.90;;;;;;5100598;28;20894;-64
2022/12/15 15:14:51;;;;;;;11.00;7.57;;;-3.00;99.90;;;;;;5089480;28;20346;-65
2022/12/15 15:17:43;;;;;;;9.02;8.10;;;-3.00;99.90;;;;;;5088920;28;20043;-64
2022/12/15 15:20:37;;;;;;;9.25;7.38;;;-3.00;99.90;;;;;;5097937;28;20154;-64
2022/12/15 15:23:07;;;;;;;8.93;6.60;;;-3.00;99.90;;;;;;5094643;28;20047;-66
2022/12/15 15:25:40;;;;;;;9.45;6.72;;;-3.00;99.90;;;;;;5097266;28;20111;-64
2022/12/15 15:28:21;;;;;;;9.88;7.63;;;-3.00;99.90;;;;;;5094934;28;20079;-67
2022/12/15 15:30:53;;;;;;;10.40;6.30;;;-3.00;99.90;;;;;;5095756;28;20044;-66
2022/12/15 15:33:23;;;;;;;9.15;7.32;;;-3.00;99.90;;;;;;5098148;28;20039;-65
2022/12/15 15:35:52;;;;;;;13.48;6.95;;;-3.00;99.90;;;;;;5096236;28;20051;-65
2022/12/15 15:38:40;;;;;;;9.57;6.63;;;-3.00;99.90;;;;;;5097769;28;20504;-64
2022/12/15 15:41:25;;;;;;;12.07;7.50;;;-3.00;99.90;;;;;;5099650;28;20044;-65
2022/12/15 15:43:51;;;;;;;11.25;8.45;;;-3.00;99.90;;;;;;5097015;28;20572;-66
2022/12/15 15:46:24;;;;;;;10.45;8.35;;;-3.00;99.90;;;;;;5099012;28;20051;-64
2022/12/15 15:48:57;;;;;;;13.27;9.20;;;-3.00;99.90;;;;;;5100700;28;20066;-64